sensor_id;sensor_type;location;lat;lon;timestamp;temperature;humidity
62555;DHT22;48610;52.144;8.624;2024-03-06T00:01:53;8.10;99.90
62555;DHT22;48610;52.144;8.624;2024-03-06T00:04:53;7.90;99.90
62555;DHT22;48610;52.144;8.624;2024-03-06T00:07:54;7.90;99.90
62555;DHT22;48610;52.144;8.624;2024-03-06T00:10:55;8.00;99.90
62555;DHT22;48610;52.144;8.624;2024-03-06T00:13:55;8.10;99.90
62555;DHT22;48610;52.144;8.624;2024-03-06T00:16:56;8.20;99.90
62555;DHT22;48610;52.144;8.624;2024-03-06T00:19:56;8.10;99.90
62555;DHT22;48610;52.144;8.624;2024-03-06T00:22:57;8.00;99.90
62555;DHT22;48610;52.144;8.624;2024-03-06T00:25:59;7.90;99.90
62555;DHT22;48610;52.144;8.624;2024-03-06T00:29:00;7.80;99.90
62555;DHT22;48610;52.144;8.624;2024-03-06T00:32:00;8.10;99.90
62555;DHT22;48610;52.144;8.624;2024-03-06T00:35:01;8.10;99.90
62555;DHT22;48610;52.144;8.624;2024-03-06T00:38:01;8.10;99.90
62555;DHT22;48610;52.144;8.624;2024-03-06T00:41:03;8.20;99.90
62555;DHT22;48610;52.144;8.624;2024-03-06T00:44:05;8.30;99.90
62555;DHT22;48610;52.144;8.624;2024-03-06T00:47:06;8.20;99.90
62555;DHT22;48610;52.144;8.624;2024-03-06T00:50:07;8.10;99.90
62555;DHT22;48610;52.144;8.624;2024-03-06T00:53:07;8.10;99.90
62555;DHT22;48610;52.144;8.624;2024-03-06T00:56:08;8.00;99.90
62555;DHT22;48610;52.144;8.624;2024-03-06T00:59:09;7.90;99.90
62555;DHT22;48610;52.144;8.624;2024-03-06T01:02:09;8.00;99.90
62555;DHT22;48610;52.144;8.624;2024-03-06T01:05:10;8.20;99.90
62555;DHT22;48610;52.144;8.624;2024-03-06T01:08:10;8.20;99.90
62555;DHT22;48610;52.144;8.624;2024-03-06T01:11:12;8.10;99.90
62555;DHT22;48610;52.144;8.624;2024-03-06T01:14:15;8.30;99.90
62555;DHT22;48610;52.144;8.624;2024-03-06T01:17:16;8.20;99.90
62555;DHT22;48610;52.144;8.624;2024-03-06T01:20:17;7.90;99.90
62555;DHT22;48610;52.144;8.624;2024-03-06T01:23:18;7.70;99.90
62555;DHT22;48610;52.144;8.624;2024-03-06T01:26:19;7.50;99.90
62555;DHT22;48610;52.144;8.624;2024-03-06T01:29:19;7.50;99.90
62555;DHT22;48610;52.144;8.624;2024-03-06T01:32:20;7.80;99.90
62555;DHT22;48610;52.144;8.624;2024-03-06T01:35:20;8.10;99.90
62555;DHT22;48610;52.144;8.624;2024-03-06T01:38:21;8.00;99.90
62555;DHT22;48610;52.144;8.624;2024-03-06T01:41:22;8.20;99.90
62555;DHT22;48610;52.144;8.624;2024-03-06T01:44:22;8.30;99.90
62555;DHT22;48610;52.144;8.624;2024-03-06T01:47:23;8.50;99.90
62555;DHT22;48610;52.144;8.624;2024-03-06T01:50:23;8.50;99.90
62555;DHT22;48610;52.144;8.624;2024-03-06T01:53:24;8.60;99.90
62555;DHT22;48610;52.144;8.624;2024-03-06T01:56:25;8.50;99.90
62555;DHT22;48610;52.144;8.624;2024-03-06T01:59:28;8.60;99.90
62555;DHT22;48610;52.144;8.624;2024-03-06T02:02:29;8.40;99.90
62555;DHT22;48610;52.144;8.624;2024-03-06T02:05:30;8.50;99.90
62555;DHT22;48610;52.144;8.624;2024-03-06T02:08:32;8.50;99.90
62555;DHT22;48610;52.144;8.624;2024-03-06T02:11:33;8.50;99.90
62555;DHT22;48610;52.144;8.624;2024-03-06T02:14:35;8.50;99.90
62555;DHT22;48610;52.144;8.624;2024-03-06T02:17:36;8.30;99.90
62555;DHT22;48610;52.144;8.624;2024-03-06T02:20:39;8.40;99.90
62555;DHT22;48610;52.144;8.624;2024-03-06T02:23:40;8.40;99.90
62555;DHT22;48610;52.144;8.624;2024-03-06T02:26:40;8.60;99.90
62555;DHT22;48610;52.144;8.624;2024-03-06T02:29:41;8.60;99.90
62555;DHT22;48610;52.144;8.624;2024-03-06T02:32:41;8.60;99.90
62555;DHT22;48610;52.144;8.624;2024-03-06T02:35:44;8.70;99.90
62555;DHT22;48610;52.144;8.624;2024-03-06T02:38:46;8.60;99.90
62555;DHT22;48610;52.144;8.624;2024-03-06T02:41:47;8.70;99.90
62555;DHT22;48610;52.144;8.624;2024-03-06T02:44:47;8.70;99.90
62555;DHT22;48610;52.144;8.624;2024-03-06T02:47:48;8.80;99.90
62555;DHT22;48610;52.144;8.624;2024-03-06T02:50:49;8.80;99.90
62555;DHT22;48610;52.144;8.624;2024-03-06T02:53:50;8.80;99.90
62555;DHT22;48610;52.144;8.624;2024-03-06T02:56:53;8.80;99.90
62555;DHT22;48610;52.144;8.624;2024-03-06T02:59:55;8.90;99.90
62555;DHT22;48610;52.144;8.624;2024-03-06T03:02:57;8.90;99.90
62555;DHT22;48610;52.144;8.624;2024-03-06T03:05:57;9.00;99.90
62555;DHT22;48610;52.144;8.624;2024-03-06T03:08:57;9.00;99.90
62555;DHT22;48610;52.144;8.624;2024-03-06T03:11:58;9.00;99.90
62555;DHT22;48610;52.144;8.624;2024-03-06T03:14:59;8.80;99.90
62555;DHT22;48610;52.144;8.624;2024-03-06T03:18:00;8.80;99.90
62555;DHT22;48610;52.144;8.624;2024-03-06T03:21:00;8.80;99.90
62555;DHT22;48610;52.144;8.624;2024-03-06T03:24:01;8.90;99.90
62555;DHT22;48610;52.144;8.624;2024-03-06T03:27:03;8.90;99.90
62555;DHT22;48610;52.144;8.624;2024-03-06T03:30:05;8.60;99.90
62555;DHT22;48610;52.144;8.624;2024-03-06T03:33:07;8.60;99.90
62555;DHT22;48610;52.144;8.624;2024-03-06T03:36:08;8.60;99.90
62555;DHT22;48610;52.144;8.624;2024-03-06T03:39:12;8.60;99.90
62555;DHT22;48610;52.144;8.624;2024-03-06T03:42:16;8.60;99.90
62555;DHT22;48610;52.144;8.624;2024-03-06T03:45:16;8.50;99.90
62555;DHT22;48610;52.144;8.624;2024-03-06T03:48:17;8.40;99.90
62555;DHT22;48610;52.144;8.624;2024-03-06T03:51:18;8.40;99.90
62555;DHT22;48610;52.144;8.624;2024-03-06T03:54:19;8.40;99.90
62555;DHT22;48610;52.144;8.624;2024-03-06T03:57:19;8.30;99.90
62555;DHT22;48610;52.144;8.624;2024-03-06T04:00:20;8.20;99.90
62555;DHT22;48610;52.144;8.624;2024-03-06T04:03:23;8.20;99.90
62555;DHT22;48610;52.144;8.624;2024-03-06T04:06:24;8.30;99.90
62555;DHT22;48610;52.144;8.624;2024-03-06T04:09:25;8.30;99.90
62555;DHT22;48610;52.144;8.624;2024-03-06T04:12:25;8.40;99.90
62555;DHT22;48610;52.144;8.624;2024-03-06T04:15:26;8.50;99.90
62555;DHT22;48610;52.144;8.624;2024-03-06T04:18:27;8.60;99.90
62555;DHT22;48610;52.144;8.624;2024-03-06T04:21:27;8.70;99.90
62555;DHT22;48610;52.144;8.624;2024-03-06T04:24:28;8.70;99.90
62555;DHT22;48610;52.144;8.624;2024-03-06T04:27:29;8.60;99.90
62555;DHT22;48610;52.144;8.624;2024-03-06T04:30:29;8.40;99.90
62555;DHT22;48610;52.144;8.624;2024-03-06T04:33:30;8.20;99.90
62555;DHT22;48610;52.144;8.624;2024-03-06T04:36:30;8.20;99.90
62555;DHT22;48610;52.144;8.624;2024-03-06T04:39:32;8.20;99.90
62555;DHT22;48610;52.144;8.624;2024-03-06T04:42:36;8.10;99.90
62555;DHT22;48610;52.144;8.624;2024-03-06T04:45:36;8.20;99.90
62555;DHT22;48610;52.144;8.624;2024-03-06T04:48:37;8.10;99.90
62555;DHT22;48610;52.144;8.624;2024-03-06T04:51:37;8.20;99.90
62555;DHT22;48610;52.144;8.624;2024-03-06T04:54:38;8.20;99.90
62555;DHT22;48610;52.144;8.624;2024-03-06T04:57:39;8.30;99.90
62555;DHT22;48610;52.144;8.624;2024-03-06T05:00:43;8.10;99.90
62555;DHT22;48610;52.144;8.624;2024-03-06T05:03:43;8.10;99.90
62555;DHT22;48610;52.144;8.624;2024-03-06T05:06:44;8.10;99.90
62555;DHT22;48610;52.144;8.624;2024-03-06T05:09:44;8.00;99.90
62555;DHT22;48610;52.144;8.624;2024-03-06T05:12:45;7.60;99.90
62555;DHT22;48610;52.144;8.624;2024-03-06T05:15:45;7.70;99.90
62555;DHT22;48610;52.144;8.624;2024-03-06T05:18:46;7.70;99.90
62555;DHT22;48610;52.144;8.624;2024-03-06T05:21:46;7.80;99.90
62555;DHT22;48610;52.144;8.624;2024-03-06T05:24:47;7.60;99.90
62555;DHT22;48610;52.144;8.624;2024-03-06T05:27:48;7.70;99.90
62555;DHT22;48610;52.144;8.624;2024-03-06T05:30:48;7.90;99.90
62555;DHT22;48610;52.144;8.624;2024-03-06T05:33:49;8.10;99.90
62555;DHT22;48610;52.144;8.624;2024-03-06T05:36:50;8.20;99.90
62555;DHT22;48610;52.144;8.624;2024-03-06T05:39:51;8.30;99.90
62555;DHT22;48610;52.144;8.624;2024-03-06T05:42:51;8.40;99.90
62555;DHT22;48610;52.144;8.624;2024-03-06T05:45:52;8.40;99.90
62555;DHT22;48610;52.144;8.624;2024-03-06T05:48:53;8.40;99.90
62555;DHT22;48610;52.144;8.624;2024-03-06T05:51:54;8.40;99.90
62555;DHT22;48610;52.144;8.624;2024-03-06T05:54:54;8.40;99.90
62555;DHT22;48610;52.144;8.624;2024-03-06T05:57:55;8.50;99.90
62555;DHT22;48610;52.144;8.624;2024-03-06T06:00:56;8.50;99.90
62555;DHT22;48610;52.144;8.624;2024-03-06T06:03:56;8.50;99.90
62555;DHT22;48610;52.144;8.624;2024-03-06T06:06:57;8.40;99.90
62555;DHT22;48610;52.144;8.624;2024-03-06T06:09:58;8.50;99.90
62555;DHT22;48610;52.144;8.624;2024-03-06T06:12:58;8.60;99.90
62555;DHT22;48610;52.144;8.624;2024-03-06T06:15:59;8.60;99.90
62555;DHT22;48610;52.144;8.624;2024-03-06T06:19:00;8.60;99.90
62555;DHT22;48610;52.144;8.624;2024-03-06T06:22:00;8.60;99.90
62555;DHT22;48610;52.144;8.624;2024-03-06T06:25:01;8.60;99.90
62555;DHT22;48610;52.144;8.624;2024-03-06T06:28:01;8.60;99.90
62555;DHT22;48610;52.144;8.624;2024-03-06T06:31:03;8.50;99.90
62555;DHT22;48610;52.144;8.624;2024-03-06T06:34:04;8.50;99.90
62555;DHT22;48610;52.144;8.624;2024-03-06T06:37:05;8.60;99.90
62555;DHT22;48610;52.144;8.624;2024-03-06T06:40:07;8.60;99.90
62555;DHT22;48610;52.144;8.624;2024-03-06T06:43:08;8.60;99.90
62555;DHT22;48610;52.144;8.624;2024-03-06T06:46:08;8.60;99.90
62555;DHT22;48610;52.144;8.624;2024-03-06T06:49:09;8.70;99.90
62555;DHT22;48610;52.144;8.624;2024-03-06T06:52:10;8.80;99.90
62555;DHT22;48610;52.144;8.624;2024-03-06T06:55:10;8.70;99.90
62555;DHT22;48610;52.144;8.624;2024-03-06T06:58:11;8.80;99.90
62555;DHT22;48610;52.144;8.624;2024-03-06T07:01:12;8.90;99.90
62555;DHT22;48610;52.144;8.624;2024-03-06T07:04:12;8.90;99.90
62555;DHT22;48610;52.144;8.624;2024-03-06T07:07:13;9.00;99.90
62555;DHT22;48610;52.144;8.624;2024-03-06T07:10:14;9.00;99.90
62555;DHT22;48610;52.144;8.624;2024-03-06T07:13:14;9.00;99.90
62555;DHT22;48610;52.144;8.624;2024-03-06T07:16:15;9.10;99.90
62555;DHT22;48610;52.144;8.624;2024-03-06T07:19:16;9.10;99.90
62555;DHT22;48610;52.144;8.624;2024-03-06T07:22:17;9.10;99.90
62555;DHT22;48610;52.144;8.624;2024-03-06T07:25:18;9.10;99.90
62555;DHT22;48610;52.144;8.624;2024-03-06T07:28:18;9.10;99.90
62555;DHT22;48610;52.144;8.624;2024-03-06T07:31:19;9.00;99.90
62555;DHT22;48610;52.144;8.624;2024-03-06T07:34:20;8.90;99.90
62555;DHT22;48610;52.144;8.624;2024-03-06T07:37:23;8.90;99.90
62555;DHT22;48610;52.144;8.624;2024-03-06T07:40:24;9.00;99.90
62555;DHT22;48610;52.144;8.624;2024-03-06T07:43:25;9.00;99.90
62555;DHT22;48610;52.144;8.624;2024-03-06T07:46:27;9.00;99.90
62555;DHT22;48610;52.144;8.624;2024-03-06T07:49:27;9.00;99.90
62555;DHT22;48610;52.144;8.624;2024-03-06T07:52:28;9.10;99.90
62555;DHT22;48610;52.144;8.624;2024-03-06T07:55:28;9.20;99.90
62555;DHT22;48610;52.144;8.624;2024-03-06T07:58:29;9.20;99.90
62555;DHT22;48610;52.144;8.624;2024-03-06T08:01:30;9.30;99.90
62555;DHT22;48610;52.144;8.624;2024-03-06T08:04:32;9.20;99.90
62555;DHT22;48610;52.144;8.624;2024-03-06T08:07:32;9.20;99.90
62555;DHT22;48610;52.144;8.624;2024-03-06T08:10:33;9.20;99.90
62555;DHT22;48610;52.144;8.624;2024-03-06T08:13:34;9.20;99.90
62555;DHT22;48610;52.144;8.624;2024-03-06T08:16:34;9.10;99.90
62555;DHT22;48610;52.144;8.624;2024-03-06T08:19:35;9.20;99.90
62555;DHT22;48610;52.144;8.624;2024-03-06T08:22:42;9.20;99.90
62555;DHT22;48610;52.144;8.624;2024-03-06T08:25:43;8.80;99.90
62555;DHT22;48610;52.144;8.624;2024-03-06T08:28:43;9.00;99.90
62555;DHT22;48610;52.144;8.624;2024-03-06T08:31:44;8.90;99.90
62555;DHT22;48610;52.144;8.624;2024-03-06T08:34:45;9.10;99.90
62555;DHT22;48610;52.144;8.624;2024-03-06T08:37:45;9.20;99.90
62555;DHT22;48610;52.144;8.624;2024-03-06T08:40:46;9.20;99.90
62555;DHT22;48610;52.144;8.624;2024-03-06T08:43:46;9.10;99.90
62555;DHT22;48610;52.144;8.624;2024-03-06T08:46:47;9.10;99.90
62555;DHT22;48610;52.144;8.624;2024-03-06T08:49:47;9.10;99.90
62555;DHT22;48610;52.144;8.624;2024-03-06T08:52:48;9.10;99.90
62555;DHT22;48610;52.144;8.624;2024-03-06T08:55:48;8.90;99.90
62555;DHT22;48610;52.144;8.624;2024-03-06T08:58:49;8.80;99.90
62555;DHT22;48610;52.144;8.624;2024-03-06T09:01:53;8.80;99.90
62555;DHT22;48610;52.144;8.624;2024-03-06T09:04:54;8.90;99.90
62555;DHT22;48610;52.144;8.624;2024-03-06T09:07:55;8.90;99.90
62555;DHT22;48610;52.144;8.624;2024-03-06T09:10:57;9.10;99.90
62555;DHT22;48610;52.144;8.624;2024-03-06T09:13:59;9.10;99.90
62555;DHT22;48610;52.144;8.624;2024-03-06T09:17:00;8.90;99.90
62555;DHT22;48610;52.144;8.624;2024-03-06T09:20:00;8.90;99.90
62555;DHT22;48610;52.144;8.624;2024-03-06T09:23:10;9.20;99.90
62555;DHT22;48610;52.144;8.624;2024-03-06T09:26:10;9.20;99.90
62555;DHT22;48610;52.144;8.624;2024-03-06T09:29:11;9.30;99.90
62555;DHT22;48610;52.144;8.624;2024-03-06T09:32:11;9.40;99.90
62555;DHT22;48610;52.144;8.624;2024-03-06T09:35:16;9.30;99.90
62555;DHT22;48610;52.144;8.624;2024-03-06T09:38:17;9.10;99.90
62555;DHT22;48610;52.144;8.624;2024-03-06T09:41:18;9.10;99.90
62555;DHT22;48610;52.144;8.624;2024-03-06T09:44:19;9.30;99.90
62555;DHT22;48610;52.144;8.624;2024-03-06T09:47:22;9.50;99.90
62555;DHT22;48610;52.144;8.624;2024-03-06T09:50:25;9.50;99.90
62555;DHT22;48610;52.144;8.624;2024-03-06T09:53:29;9.30;99.90
62555;DHT22;48610;52.144;8.624;2024-03-06T09:56:30;9.30;99.90
62555;DHT22;48610;52.144;8.624;2024-03-06T09:59:31;9.10;99.90
62555;DHT22;48610;52.144;8.624;2024-03-06T10:02:57;9.20;99.90
62555;DHT22;48610;52.144;8.624;2024-03-06T10:05:57;9.30;99.90
62555;DHT22;48610;52.144;8.624;2024-03-06T10:09:04;9.50;99.90
62555;DHT22;48610;52.144;8.624;2024-03-06T10:12:12;9.60;99.90
62555;DHT22;48610;52.144;8.624;2024-03-06T10:15:12;9.70;99.90
62555;DHT22;48610;52.144;8.624;2024-03-06T10:18:14;9.70;99.90
62555;DHT22;48610;52.144;8.624;2024-03-06T10:21:15;9.70;99.90
62555;DHT22;48610;52.144;8.624;2024-03-06T10:24:22;9.80;99.90
62555;DHT22;48610;52.144;8.624;2024-03-06T10:27:26;9.50;99.90
62555;DHT22;48610;52.144;8.624;2024-03-06T10:30:27;9.40;99.90
62555;DHT22;48610;52.144;8.624;2024-03-06T10:33:28;9.60;99.90
62555;DHT22;48610;52.144;8.624;2024-03-06T10:36:32;9.10;99.90
62555;DHT22;48610;52.144;8.624;2024-03-06T10:39:36;9.20;99.90
62555;DHT22;48610;52.144;8.624;2024-03-06T10:42:41;9.40;99.90
62555;DHT22;48610;52.144;8.624;2024-03-06T10:45:50;9.60;99.90
62555;DHT22;48610;52.144;8.624;2024-03-06T10:48:51;9.50;99.90
62555;DHT22;48610;52.144;8.624;2024-03-06T10:51:54;9.70;99.90
62555;DHT22;48610;52.144;8.624;2024-03-06T10:54:55;9.80;99.90
62555;DHT22;48610;52.144;8.624;2024-03-06T10:57:59;9.70;99.90
62555;DHT22;48610;52.144;8.624;2024-03-06T11:01:01;9.90;99.90
62555;DHT22;48610;52.144;8.624;2024-03-06T11:04:02;10.00;99.90
62555;DHT22;48610;52.144;8.624;2024-03-06T11:07:04;9.90;99.90
62555;DHT22;48610;52.144;8.624;2024-03-06T11:10:05;9.80;99.90
62555;DHT22;48610;52.144;8.624;2024-03-06T11:16:27;9.90;99.90
62555;DHT22;48610;52.144;8.624;2024-03-06T11:26:05;10.10;99.90
62555;DHT22;48610;52.144;8.624;2024-03-06T11:29:07;9.90;99.90
62555;DHT22;48610;52.144;8.624;2024-03-06T11:32:08;10.10;99.90
62555;DHT22;48610;52.144;8.624;2024-03-06T11:35:08;9.90;99.90
62555;DHT22;48610;52.144;8.624;2024-03-06T11:38:12;9.90;99.90
62555;DHT22;48610;52.144;8.624;2024-03-06T11:41:13;9.70;99.90
62555;DHT22;48610;52.144;8.624;2024-03-06T11:44:21;9.70;99.90
62555;DHT22;48610;52.144;8.624;2024-03-06T11:47:22;9.90;99.90
62555;DHT22;48610;52.144;8.624;2024-03-06T11:50:22;9.60;99.90
62555;DHT22;48610;52.144;8.624;2024-03-06T11:53:23;9.70;99.90
62555;DHT22;48610;52.144;8.624;2024-03-06T11:56:26;9.80;99.90
62555;DHT22;48610;52.144;8.624;2024-03-06T11:59:34;10.00;99.90
62555;DHT22;48610;52.144;8.624;2024-03-06T12:02:38;10.10;99.90
62555;DHT22;48610;52.144;8.624;2024-03-06T12:05:39;10.10;99.90
62555;DHT22;48610;52.144;8.624;2024-03-06T12:08:40;9.90;99.90
62555;DHT22;48610;52.144;8.624;2024-03-06T12:11:41;10.10;99.90
62555;DHT22;48610;52.144;8.624;2024-03-06T12:14:43;10.30;99.90
62555;DHT22;48610;52.144;8.624;2024-03-06T12:17:55;10.20;99.90
62555;DHT22;48610;52.144;8.624;2024-03-06T12:20:56;10.10;99.90
62555;DHT22;48610;52.144;8.624;2024-03-06T12:24:07;10.10;99.90
62555;DHT22;48610;52.144;8.624;2024-03-06T12:27:08;10.30;99.90
62555;DHT22;48610;52.144;8.624;2024-03-06T12:30:09;10.50;99.90
62555;DHT22;48610;52.144;8.624;2024-03-06T12:33:16;10.30;99.90
62555;DHT22;48610;52.144;8.624;2024-03-06T12:36:25;9.90;99.90
62555;DHT22;48610;52.144;8.624;2024-03-06T12:39:26;9.60;99.90
62555;DHT22;48610;52.144;8.624;2024-03-06T12:42:26;9.70;99.90
62555;DHT22;48610;52.144;8.624;2024-03-06T12:45:28;9.80;99.90
62555;DHT22;48610;52.144;8.624;2024-03-06T12:48:28;9.90;99.90
62555;DHT22;48610;52.144;8.624;2024-03-06T12:51:30;10.00;99.90
62555;DHT22;48610;52.144;8.624;2024-03-06T12:54:33;10.30;99.90
62555;DHT22;48610;52.144;8.624;2024-03-06T12:57:34;10.50;99.90
62555;DHT22;48610;52.144;8.624;2024-03-06T13:00:34;10.40;99.90
62555;DHT22;48610;52.144;8.624;2024-03-06T13:03:35;10.00;99.90
62555;DHT22;48610;52.144;8.624;2024-03-06T13:06:36;10.10;99.90
62555;DHT22;48610;52.144;8.624;2024-03-06T13:09:36;10.30;99.90
62555;DHT22;48610;52.144;8.624;2024-03-06T13:12:38;10.20;99.90
62555;DHT22;48610;52.144;8.624;2024-03-06T13:15:38;10.40;99.90
62555;DHT22;48610;52.144;8.624;2024-03-06T13:18:39;10.20;99.90
62555;DHT22;48610;52.144;8.624;2024-03-06T13:21:39;10.10;99.90
62555;DHT22;48610;52.144;8.624;2024-03-06T13:24:40;10.20;99.90
62555;DHT22;48610;52.144;8.624;2024-03-06T13:27:41;10.40;99.90
62555;DHT22;48610;52.144;8.624;2024-03-06T13:30:42;10.30;99.90
62555;DHT22;48610;52.144;8.624;2024-03-06T13:33:43;10.20;99.90
62555;DHT22;48610;52.144;8.624;2024-03-06T13:36:43;10.20;99.90
62555;DHT22;48610;52.144;8.624;2024-03-06T13:39:44;10.20;99.90
62555;DHT22;48610;52.144;8.624;2024-03-06T13:42:45;10.40;99.90
62555;DHT22;48610;52.144;8.624;2024-03-06T13:45:50;10.50;99.90
62555;DHT22;48610;52.144;8.624;2024-03-06T13:48:50;10.40;99.90
62555;DHT22;48610;52.144;8.624;2024-03-06T13:51:51;10.30;99.90
62555;DHT22;48610;52.144;8.624;2024-03-06T13:54:52;10.20;99.90
62555;DHT22;48610;52.144;8.624;2024-03-06T13:57:52;10.50;99.90
62555;DHT22;48610;52.144;8.624;2024-03-06T14:00:53;10.40;99.90
62555;DHT22;48610;52.144;8.624;2024-03-06T14:03:53;10.30;99.90
62555;DHT22;48610;52.144;8.624;2024-03-06T14:06:54;10.40;99.90
62555;DHT22;48610;52.144;8.624;2024-03-06T14:09:54;10.50;99.90
62555;DHT22;48610;52.144;8.624;2024-03-06T14:12:57;10.50;99.90
62555;DHT22;48610;52.144;8.624;2024-03-06T14:15:58;10.70;99.90
62555;DHT22;48610;52.144;8.624;2024-03-06T14:19:01;11.10;99.90
62555;DHT22;48610;52.144;8.624;2024-03-06T14:22:01;10.80;99.90
62555;DHT22;48610;52.144;8.624;2024-03-06T14:25:02;10.90;99.90
62555;DHT22;48610;52.144;8.624;2024-03-06T14:28:03;10.60;99.90
62555;DHT22;48610;52.144;8.624;2024-03-06T14:31:05;10.60;99.90
62555;DHT22;48610;52.144;8.624;2024-03-06T14:34:06;10.50;99.90
62555;DHT22;48610;52.144;8.624;2024-03-06T14:37:06;10.70;99.90
62555;DHT22;48610;52.144;8.624;2024-03-06T14:40:08;10.80;99.90
62555;DHT22;48610;52.144;8.624;2024-03-06T14:43:09;10.80;99.90
62555;DHT22;48610;52.144;8.624;2024-03-06T14:46:10;10.70;99.90
62555;DHT22;48610;52.144;8.624;2024-03-06T14:49:11;10.70;99.90
62555;DHT22;48610;52.144;8.624;2024-03-06T14:52:12;10.60;99.90
62555;DHT22;48610;52.144;8.624;2024-03-06T14:55:15;10.60;99.90
62555;DHT22;48610;52.144;8.624;2024-03-06T14:58:17;10.20;99.90
62555;DHT22;48610;52.144;8.624;2024-03-06T15:01:18;10.20;99.90
62555;DHT22;48610;52.144;8.624;2024-03-06T15:04:18;10.10;99.90
62555;DHT22;48610;52.144;8.624;2024-03-06T15:07:19;10.10;99.90
62555;DHT22;48610;52.144;8.624;2024-03-06T15:10:19;10.00;99.90
62555;DHT22;48610;52.144;8.624;2024-03-06T15:13:20;10.00;99.90
62555;DHT22;48610;52.144;8.624;2024-03-06T15:16:23;10.00;99.90
62555;DHT22;48610;52.144;8.624;2024-03-06T15:19:24;9.80;99.90
62555;DHT22;48610;52.144;8.624;2024-03-06T15:22:25;9.60;99.90
62555;DHT22;48610;52.144;8.624;2024-03-06T15:25:26;9.90;99.90
62555;DHT22;48610;52.144;8.624;2024-03-06T15:28:27;10.00;99.90
62555;DHT22;48610;52.144;8.624;2024-03-06T15:31:27;9.80;99.90
62555;DHT22;48610;52.144;8.624;2024-03-06T15:34:28;9.90;99.90
62555;DHT22;48610;52.144;8.624;2024-03-06T15:37:29;9.90;99.90
62555;DHT22;48610;52.144;8.624;2024-03-06T15:40:30;9.80;99.90
62555;DHT22;48610;52.144;8.624;2024-03-06T15:43:30;9.70;99.90
62555;DHT22;48610;52.144;8.624;2024-03-06T15:46:31;9.80;99.90
62555;DHT22;48610;52.144;8.624;2024-03-06T15:49:33;9.80;99.90
62555;DHT22;48610;52.144;8.624;2024-03-06T15:52:34;9.80;99.90
62555;DHT22;48610;52.144;8.624;2024-03-06T15:55:35;9.80;99.90
62555;DHT22;48610;52.144;8.624;2024-03-06T15:58:35;9.80;99.90
62555;DHT22;48610;52.144;8.624;2024-03-06T16:01:36;9.90;99.90
62555;DHT22;48610;52.144;8.624;2024-03-06T16:04:36;9.70;99.90
62555;DHT22;48610;52.144;8.624;2024-03-06T16:07:38;9.80;99.90
62555;DHT22;48610;52.144;8.624;2024-03-06T16:10:38;10.10;99.90
62555;DHT22;48610;52.144;8.624;2024-03-06T16:13:39;10.20;99.90
62555;DHT22;48610;52.144;8.624;2024-03-06T16:16:40;10.40;99.90
62555;DHT22;48610;52.144;8.624;2024-03-06T16:19:42;10.20;99.90
62555;DHT22;48610;52.144;8.624;2024-03-06T16:22:42;10.10;99.90
62555;DHT22;48610;52.144;8.624;2024-03-06T16:25:43;10.10;99.90
62555;DHT22;48610;52.144;8.624;2024-03-06T16:28:44;10.40;99.90
62555;DHT22;48610;52.144;8.624;2024-03-06T16:31:45;10.70;99.90
62555;DHT22;48610;52.144;8.624;2024-03-06T16:34:45;10.80;99.90
62555;DHT22;48610;52.144;8.624;2024-03-06T16:37:46;10.70;99.90
62555;DHT22;48610;52.144;8.624;2024-03-06T16:40:49;10.40;99.90
62555;DHT22;48610;52.144;8.624;2024-03-06T16:43:50;10.20;99.90
62555;DHT22;48610;52.144;8.624;2024-03-06T16:46:51;10.40;99.90
62555;DHT22;48610;52.144;8.624;2024-03-06T16:49:52;10.20;99.90
62555;DHT22;48610;52.144;8.624;2024-03-06T16:52:52;10.10;99.90
62555;DHT22;48610;52.144;8.624;2024-03-06T16:55:53;10.00;99.90
62555;DHT22;48610;52.144;8.624;2024-03-06T16:58:53;9.90;99.90
62555;DHT22;48610;52.144;8.624;2024-03-06T17:01:54;9.90;99.90
62555;DHT22;48610;52.144;8.624;2024-03-06T17:04:56;10.20;99.90
62555;DHT22;48610;52.144;8.624;2024-03-06T17:07:57;10.40;99.90
62555;DHT22;48610;52.144;8.624;2024-03-06T17:10:58;10.50;99.90
62555;DHT22;48610;52.144;8.624;2024-03-06T17:13:59;10.60;99.90
62555;DHT22;48610;52.144;8.624;2024-03-06T17:17:00;10.70;99.90
62555;DHT22;48610;52.144;8.624;2024-03-06T17:20:00;10.70;99.90
62555;DHT22;48610;52.144;8.624;2024-03-06T17:23:01;10.80;99.90
62555;DHT22;48610;52.144;8.624;2024-03-06T17:26:04;10.70;99.90
62555;DHT22;48610;52.144;8.624;2024-03-06T17:29:04;10.80;99.90
62555;DHT22;48610;52.144;8.624;2024-03-06T17:32:05;10.90;99.90
62555;DHT22;48610;52.144;8.624;2024-03-06T17:35:06;10.90;99.90
62555;DHT22;48610;52.144;8.624;2024-03-06T17:38:09;10.90;99.90
62555;DHT22;48610;52.144;8.624;2024-03-06T17:41:10;10.90;99.90
62555;DHT22;48610;52.144;8.624;2024-03-06T17:44:11;10.90;99.90
62555;DHT22;48610;52.144;8.624;2024-03-06T17:47:11;10.90;99.90
62555;DHT22;48610;52.144;8.624;2024-03-06T17:50:12;10.70;99.90
62555;DHT22;48610;52.144;8.624;2024-03-06T17:53:14;10.60;99.90
62555;DHT22;48610;52.144;8.624;2024-03-06T17:56:14;10.50;99.90
62555;DHT22;48610;52.144;8.624;2024-03-06T17:59:15;10.60;99.90
62555;DHT22;48610;52.144;8.624;2024-03-06T18:02:15;10.60;99.90
62555;DHT22;48610;52.144;8.624;2024-03-06T18:05:16;10.60;99.90
62555;DHT22;48610;52.144;8.624;2024-03-06T18:08:17;10.60;99.90
62555;DHT22;48610;52.144;8.624;2024-03-06T18:11:17;10.60;99.90
62555;DHT22;48610;52.144;8.624;2024-03-06T18:14:18;10.60;99.90
62555;DHT22;48610;52.144;8.624;2024-03-06T18:17:18;10.60;99.90
62555;DHT22;48610;52.144;8.624;2024-03-06T18:20:21;10.60;99.90
62555;DHT22;48610;52.144;8.624;2024-03-06T18:23:22;10.50;99.90
62555;DHT22;48610;52.144;8.624;2024-03-06T18:26:24;10.20;99.90
62555;DHT22;48610;52.144;8.624;2024-03-06T18:29:25;10.30;99.90
62555;DHT22;48610;52.144;8.624;2024-03-06T18:32:25;10.40;99.90
62555;DHT22;48610;52.144;8.624;2024-03-06T18:35:26;10.20;99.90
62555;DHT22;48610;52.144;8.624;2024-03-06T18:38:26;10.40;99.90
62555;DHT22;48610;52.144;8.624;2024-03-06T18:41:27;10.30;99.90
62555;DHT22;48610;52.144;8.624;2024-03-06T18:44:28;10.40;99.90
62555;DHT22;48610;52.144;8.624;2024-03-06T18:47:29;10.50;99.90
62555;DHT22;48610;52.144;8.624;2024-03-06T18:50:29;10.50;99.90
62555;DHT22;48610;52.144;8.624;2024-03-06T18:53:30;10.60;99.90
62555;DHT22;48610;52.144;8.624;2024-03-06T18:56:31;10.60;99.90
62555;DHT22;48610;52.144;8.624;2024-03-06T18:59:31;10.60;99.90
62555;DHT22;48610;52.144;8.624;2024-03-06T19:02:32;10.70;99.90
62555;DHT22;48610;52.144;8.624;2024-03-06T19:05:33;10.50;99.90
62555;DHT22;48610;52.144;8.624;2024-03-06T19:08:33;10.50;99.90
62555;DHT22;48610;52.144;8.624;2024-03-06T19:11:34;10.50;99.90
62555;DHT22;48610;52.144;8.624;2024-03-06T19:14:34;10.60;99.90
62555;DHT22;48610;52.144;8.624;2024-03-06T19:17:38;10.50;99.90
62555;DHT22;48610;52.144;8.624;2024-03-06T19:20:38;10.60;99.90
62555;DHT22;48610;52.144;8.624;2024-03-06T19:23:42;10.50;99.90
62555;DHT22;48610;52.144;8.624;2024-03-06T19:26:42;10.40;99.90